sensor_id;sensor_type;location;lat;lon;timestamp;temperature;humidity
71994;DHT22;59861;50.268;8.648;2023-03-14T00:02:23;15.90;56.40
71994;DHT22;59861;50.268;8.648;2023-03-14T00:04:49;15.90;56.40
71994;DHT22;59861;50.268;8.648;2023-03-14T00:07:16;15.90;56.40
71994;DHT22;59861;50.268;8.648;2023-03-14T00:09:43;15.90;56.20
71994;DHT22;59861;50.268;8.648;2023-03-14T00:12:10;16.00;56.20
71994;DHT22;59861;50.268;8.648;2023-03-14T00:14:37;16.00;56.20
71994;DHT22;59861;50.268;8.648;2023-03-14T00:17:04;15.90;56.20
71994;DHT22;59861;50.268;8.648;2023-03-14T00:19:30;16.00;56.10
71994;DHT22;59861;50.268;8.648;2023-03-14T00:21:57;16.00;56.10
71994;DHT22;59861;50.268;8.648;2023-03-14T00:24:24;15.90;56.10
71994;DHT22;59861;50.268;8.648;2023-03-14T00:26:51;15.90;56.10
71994;DHT22;59861;50.268;8.648;2023-03-14T00:29:17;15.90;56.10
71994;DHT22;59861;50.268;8.648;2023-03-14T00:31:44;15.90;56.10
71994;DHT22;59861;50.268;8.648;2023-03-14T00:34:11;15.90;56.10
71994;DHT22;59861;50.268;8.648;2023-03-14T00:36:38;15.90;56.00
71994;DHT22;59861;50.268;8.648;2023-03-14T00:39:05;16.00;56.60
71994;DHT22;59861;50.268;8.648;2023-03-14T00:41:32;16.00;55.00
71994;DHT22;59861;50.268;8.648;2023-03-14T00:43:58;16.00;55.70
71994;DHT22;59861;50.268;8.648;2023-03-14T00:46:25;16.00;55.60
71994;DHT22;59861;50.268;8.648;2023-03-14T00:48:52;16.00;55.70
71994;DHT22;59861;50.268;8.648;2023-03-14T00:51:19;16.00;55.70
71994;DHT22;59861;50.268;8.648;2023-03-14T00:53:46;15.90;55.90
71994;DHT22;59861;50.268;8.648;2023-03-14T00:56:13;16.00;55.80
71994;DHT22;59861;50.268;8.648;2023-03-14T00:58:40;16.00;55.60
71994;DHT22;59861;50.268;8.648;2023-03-14T01:01:12;16.10;55.50
71994;DHT22;59861;50.268;8.648;2023-03-14T01:03:38;16.00;55.50
71994;DHT22;59861;50.268;8.648;2023-03-14T01:06:19;16.00;55.70
71994;DHT22;59861;50.268;8.648;2023-03-14T01:08:42;15.90;55.80
71994;DHT22;59861;50.268;8.648;2023-03-14T01:11:10;15.90;55.70
71994;DHT22;59861;50.268;8.648;2023-03-14T01:13:38;15.90;55.80
71994;DHT22;59861;50.268;8.648;2023-03-14T01:16:06;15.90;55.80
71994;DHT22;59861;50.268;8.648;2023-03-14T01:18:33;15.90;55.80
71994;DHT22;59861;50.268;8.648;2023-03-14T01:21:04;15.90;55.70
71994;DHT22;59861;50.268;8.648;2023-03-14T01:23:32;15.90;55.70
71994;DHT22;59861;50.268;8.648;2023-03-14T01:25:58;15.90;55.80
71994;DHT22;59861;50.268;8.648;2023-03-14T01:28:25;15.80;55.70
71994;DHT22;59861;50.268;8.648;2023-03-14T01:30:52;15.80;55.80
71994;DHT22;59861;50.268;8.648;2023-03-14T01:33:19;15.80;55.80
71994;DHT22;59861;50.268;8.648;2023-03-14T01:35:46;15.80;55.80
71994;DHT22;59861;50.268;8.648;2023-03-14T01:38:14;15.70;55.80
71994;DHT22;59861;50.268;8.648;2023-03-14T01:40:41;15.80;55.80
71994;DHT22;59861;50.268;8.648;2023-03-14T01:43:16;15.70;55.70
71994;DHT22;59861;50.268;8.648;2023-03-14T01:48:28;15.80;55.80
71994;DHT22;59861;50.268;8.648;2023-03-14T01:50:56;15.70;55.80
71994;DHT22;59861;50.268;8.648;2023-03-14T01:53:23;15.70;55.60
71994;DHT22;59861;50.268;8.648;2023-03-14T01:55:50;15.70;55.70
71994;DHT22;59861;50.268;8.648;2023-03-14T01:58:18;15.70;55.80
71994;DHT22;59861;50.268;8.648;2023-03-14T02:00:46;15.70;55.80
71994;DHT22;59861;50.268;8.648;2023-03-14T02:03:14;15.70;55.70
71994;DHT22;59861;50.268;8.648;2023-03-14T02:05:41;15.70;55.70
71994;DHT22;59861;50.268;8.648;2023-03-14T02:08:14;15.70;55.70
71994;DHT22;59861;50.268;8.648;2023-03-14T02:10:38;15.70;55.60
71994;DHT22;59861;50.268;8.648;2023-03-14T02:13:05;15.70;55.60
71994;DHT22;59861;50.268;8.648;2023-03-14T02:15:32;15.70;55.60
71994;DHT22;59861;50.268;8.648;2023-03-14T02:17:59;15.70;55.50
71994;DHT22;59861;50.268;8.648;2023-03-14T02:20:30;15.70;55.50
71994;DHT22;59861;50.268;8.648;2023-03-14T02:22:56;15.70;55.40
71994;DHT22;59861;50.268;8.648;2023-03-14T02:27:51;15.70;55.40
71994;DHT22;59861;50.268;8.648;2023-03-14T02:30:19;15.70;55.40
71994;DHT22;59861;50.268;8.648;2023-03-14T02:32:47;15.70;55.50
71994;DHT22;59861;50.268;8.648;2023-03-14T02:35:15;15.70;55.40
71994;DHT22;59861;50.268;8.648;2023-03-14T02:40:11;15.70;55.30
71994;DHT22;59861;50.268;8.648;2023-03-14T02:42:38;15.70;55.30
71994;DHT22;59861;50.268;8.648;2023-03-14T02:47:33;15.60;55.30
71994;DHT22;59861;50.268;8.648;2023-03-14T02:50:06;15.70;55.30
71994;DHT22;59861;50.268;8.648;2023-03-14T02:52:28;15.60;55.30
71994;DHT22;59861;50.268;8.648;2023-03-14T02:54:55;15.60;55.20
71994;DHT22;59861;50.268;8.648;2023-03-14T02:57:22;15.60;55.30
71994;DHT22;59861;50.268;8.648;2023-03-14T02:59:48;15.60;55.40
71994;DHT22;59861;50.268;8.648;2023-03-14T03:02:15;15.60;55.30
71994;DHT22;59861;50.268;8.648;2023-03-14T03:04:42;15.60;55.20
71994;DHT22;59861;50.268;8.648;2023-03-14T03:07:09;15.60;55.20
71994;DHT22;59861;50.268;8.648;2023-03-14T03:09:36;15.60;55.20
71994;DHT22;59861;50.268;8.648;2023-03-14T03:12:02;15.60;55.20
71994;DHT22;59861;50.268;8.648;2023-03-14T03:14:29;15.60;55.20
71994;DHT22;59861;50.268;8.648;2023-03-14T03:16:56;15.60;55.20
71994;DHT22;59861;50.268;8.648;2023-03-14T03:19:23;15.60;55.20
71994;DHT22;59861;50.268;8.648;2023-03-14T03:21:50;15.60;55.20
71994;DHT22;59861;50.268;8.648;2023-03-14T03:24:16;15.60;55.20
71994;DHT22;59861;50.268;8.648;2023-03-14T03:26:43;15.60;55.10
71994;DHT22;59861;50.268;8.648;2023-03-14T03:29:10;15.60;55.10
71994;DHT22;59861;50.268;8.648;2023-03-14T03:31:37;15.60;55.10
71994;DHT22;59861;50.268;8.648;2023-03-14T03:34:04;15.60;55.20
71994;DHT22;59861;50.268;8.648;2023-03-14T03:36:31;15.50;55.10
71994;DHT22;59861;50.268;8.648;2023-03-14T03:38:58;15.50;55.10
71994;DHT22;59861;50.268;8.648;2023-03-14T03:41:24;15.50;55.20
71994;DHT22;59861;50.268;8.648;2023-03-14T03:43:51;15.50;55.00
71994;DHT22;59861;50.268;8.648;2023-03-14T03:46:19;15.60;55.10
71994;DHT22;59861;50.268;8.648;2023-03-14T03:48:46;15.50;55.00
71994;DHT22;59861;50.268;8.648;2023-03-14T03:51:14;15.50;55.00
71994;DHT22;59861;50.268;8.648;2023-03-14T03:53:41;15.50;55.00
71994;DHT22;59861;50.268;8.648;2023-03-14T03:56:08;15.50;55.00
71994;DHT22;59861;50.268;8.648;2023-03-14T03:58:35;15.50;55.10
71994;DHT22;59861;50.268;8.648;2023-03-14T04:01:04;15.50;55.60
71994;DHT22;59861;50.268;8.648;2023-03-14T04:03:32;15.50;55.00
71994;DHT22;59861;50.268;8.648;2023-03-14T04:06:04;15.50;55.00
71994;DHT22;59861;50.268;8.648;2023-03-14T04:08:31;15.50;55.10
71994;DHT22;59861;50.268;8.648;2023-03-14T04:10:58;15.50;55.00
71994;DHT22;59861;50.268;8.648;2023-03-14T04:13:26;15.50;55.00
71994;DHT22;59861;50.268;8.648;2023-03-14T04:15:53;15.50;55.00
71994;DHT22;59861;50.268;8.648;2023-03-14T04:18:21;15.50;55.00
71994;DHT22;59861;50.268;8.648;2023-03-14T04:20:56;15.50;55.00
71994;DHT22;59861;50.268;8.648;2023-03-14T04:23:24;15.50;55.00
71994;DHT22;59861;50.268;8.648;2023-03-14T04:25:51;15.50;55.00
71994;DHT22;59861;50.268;8.648;2023-03-14T04:28:26;15.50;55.00
71994;DHT22;59861;50.268;8.648;2023-03-14T04:30:53;15.50;55.00
71994;DHT22;59861;50.268;8.648;2023-03-14T04:33:20;15.50;55.00
71994;DHT22;59861;50.268;8.648;2023-03-14T04:35:47;15.50;55.00
71994;DHT22;59861;50.268;8.648;2023-03-14T04:38:15;15.40;55.50
71994;DHT22;59861;50.268;8.648;2023-03-14T04:40:43;15.50;55.00
71994;DHT22;59861;50.268;8.648;2023-03-14T04:43:10;15.50;54.90
71994;DHT22;59861;50.268;8.648;2023-03-14T04:45:41;15.50;55.00
71994;DHT22;59861;50.268;8.648;2023-03-14T04:48:06;15.50;55.00
71994;DHT22;59861;50.268;8.648;2023-03-14T04:50:32;15.50;55.00
71994;DHT22;59861;50.268;8.648;2023-03-14T04:52:59;15.40;55.10
71994;DHT22;59861;50.268;8.648;2023-03-14T04:55:26;15.40;55.40
71994;DHT22;59861;50.268;8.648;2023-03-14T04:57:53;15.40;55.50
71994;DHT22;59861;50.268;8.648;2023-03-14T05:00:20;15.30;55.70
71994;DHT22;59861;50.268;8.648;2023-03-14T05:02:46;15.30;55.90
71994;DHT22;59861;50.268;8.648;2023-03-14T05:05:13;15.20;56.00
71994;DHT22;59861;50.268;8.648;2023-03-14T05:07:40;15.20;56.10
71994;DHT22;59861;50.268;8.648;2023-03-14T05:10:07;15.20;56.10
71994;DHT22;59861;50.268;8.648;2023-03-14T05:12:34;15.20;56.10
71994;DHT22;59861;50.268;8.648;2023-03-14T05:15:01;15.20;56.20
71994;DHT22;59861;50.268;8.648;2023-03-14T05:17:27;15.20;56.30
71994;DHT22;59861;50.268;8.648;2023-03-14T05:19:54;15.20;56.30
71994;DHT22;59861;50.268;8.648;2023-03-14T05:22:21;15.20;56.30
71994;DHT22;59861;50.268;8.648;2023-03-14T05:24:48;15.20;56.40
71994;DHT22;59861;50.268;8.648;2023-03-14T05:27:15;15.20;56.30
71994;DHT22;59861;50.268;8.648;2023-03-14T05:29:41;15.20;56.30
71994;DHT22;59861;50.268;8.648;2023-03-14T05:32:08;15.20;56.30
71994;DHT22;59861;50.268;8.648;2023-03-14T05:34:35;15.20;56.40
71994;DHT22;59861;50.268;8.648;2023-03-14T05:37:02;15.20;56.30
71994;DHT22;59861;50.268;8.648;2023-03-14T05:39:29;15.30;56.40
71994;DHT22;59861;50.268;8.648;2023-03-14T05:41:55;15.30;56.30
71994;DHT22;59861;50.268;8.648;2023-03-14T05:44:22;15.30;56.40
71994;DHT22;59861;50.268;8.648;2023-03-14T05:46:49;15.30;56.40
71994;DHT22;59861;50.268;8.648;2023-03-14T05:49:16;15.30;56.40
71994;DHT22;59861;50.268;8.648;2023-03-14T05:51:43;15.30;56.50
71994;DHT22;59861;50.268;8.648;2023-03-14T05:54:09;15.30;56.50
71994;DHT22;59861;50.268;8.648;2023-03-14T05:56:36;15.30;56.70
71994;DHT22;59861;50.268;8.648;2023-03-14T05:59:03;15.30;56.90
71994;DHT22;59861;50.268;8.648;2023-03-14T06:01:30;15.30;57.00
71994;DHT22;59861;50.268;8.648;2023-03-14T06:03:57;15.30;56.90
71994;DHT22;59861;50.268;8.648;2023-03-14T06:06:24;15.30;57.00
71994;DHT22;59861;50.268;8.648;2023-03-14T06:08:50;15.40;57.00
71994;DHT22;59861;50.268;8.648;2023-03-14T06:11:17;15.40;56.90
71994;DHT22;59861;50.268;8.648;2023-03-14T06:13:44;15.40;57.10
71994;DHT22;59861;50.268;8.648;2023-03-14T06:16:12;15.40;57.00
71994;DHT22;59861;50.268;8.648;2023-03-14T06:18:40;15.40;57.00
71994;DHT22;59861;50.268;8.648;2023-03-14T06:21:06;15.50;57.00
71994;DHT22;59861;50.268;8.648;2023-03-14T06:23:33;15.40;56.80
71994;DHT22;59861;50.268;8.648;2023-03-14T06:26:00;15.40;57.20
71994;DHT22;59861;50.268;8.648;2023-03-14T06:28:27;15.40;57.20
71994;DHT22;59861;50.268;8.648;2023-03-14T06:30:54;15.40;57.20
71994;DHT22;59861;50.268;8.648;2023-03-14T06:33:20;15.40;57.10
71994;DHT22;59861;50.268;8.648;2023-03-14T06:35:47;15.50;56.90
71994;DHT22;59861;50.268;8.648;2023-03-14T06:38:14;15.50;56.80
71994;DHT22;59861;50.268;8.648;2023-03-14T06:40:41;15.60;56.60
71994;DHT22;59861;50.268;8.648;2023-03-14T06:43:08;15.70;56.30
71994;DHT22;59861;50.268;8.648;2023-03-14T06:45:35;15.80;56.10
71994;DHT22;59861;50.268;8.648;2023-03-14T06:48:02;15.80;56.00
71994;DHT22;59861;50.268;8.648;2023-03-14T06:50:29;15.90;56.00
71994;DHT22;59861;50.268;8.648;2023-03-14T06:52:55;15.80;55.80
71994;DHT22;59861;50.268;8.648;2023-03-14T06:55:22;15.80;55.80
71994;DHT22;59861;50.268;8.648;2023-03-14T06:57:49;15.90;55.80
71994;DHT22;59861;50.268;8.648;2023-03-14T07:00:16;15.90;55.70
71994;DHT22;59861;50.268;8.648;2023-03-14T07:02:43;15.80;55.80
71994;DHT22;59861;50.268;8.648;2023-03-14T07:05:10;15.90;55.80
71994;DHT22;59861;50.268;8.648;2023-03-14T07:07:37;15.90;55.70
71994;DHT22;59861;50.268;8.648;2023-03-14T07:10:04;15.90;55.70
71994;DHT22;59861;50.268;8.648;2023-03-14T07:12:30;15.90;55.70
71994;DHT22;59861;50.268;8.648;2023-03-14T07:14:57;15.90;55.70
71994;DHT22;59861;50.268;8.648;2023-03-14T07:17:24;15.90;55.70
71994;DHT22;59861;50.268;8.648;2023-03-14T07:19:51;15.80;55.70
71994;DHT22;59861;50.268;8.648;2023-03-14T07:22:18;15.80;55.70
71994;DHT22;59861;50.268;8.648;2023-03-14T07:24:44;15.90;55.70
71994;DHT22;59861;50.268;8.648;2023-03-14T07:27:11;15.80;55.60
71994;DHT22;59861;50.268;8.648;2023-03-14T07:29:38;15.90;55.70
71994;DHT22;59861;50.268;8.648;2023-03-14T07:32:05;15.90;55.60
71994;DHT22;59861;50.268;8.648;2023-03-14T07:34:32;15.90;55.60
71994;DHT22;59861;50.268;8.648;2023-03-14T07:36:59;15.80;55.60
71994;DHT22;59861;50.268;8.648;2023-03-14T07:39:25;15.80;55.70
71994;DHT22;59861;50.268;8.648;2023-03-14T07:41:52;15.80;55.60
71994;DHT22;59861;50.268;8.648;2023-03-14T07:44:19;15.80;55.70
71994;DHT22;59861;50.268;8.648;2023-03-14T07:46:46;15.80;55.60
71994;DHT22;59861;50.268;8.648;2023-03-14T07:49:12;15.80;55.70
71994;DHT22;59861;50.268;8.648;2023-03-14T07:51:39;15.80;55.50
71994;DHT22;59861;50.268;8.648;2023-03-14T07:54:06;15.80;55.50
71994;DHT22;59861;50.268;8.648;2023-03-14T07:56:33;15.80;55.40
71994;DHT22;59861;50.268;8.648;2023-03-14T07:59:00;15.80;55.30
71994;DHT22;59861;50.268;8.648;2023-03-14T08:01:27;15.80;55.50
71994;DHT22;59861;50.268;8.648;2023-03-14T08:03:54;15.80;55.50
71994;DHT22;59861;50.268;8.648;2023-03-14T08:06:20;15.90;55.50
71994;DHT22;59861;50.268;8.648;2023-03-14T08:08:47;15.80;55.50
71994;DHT22;59861;50.268;8.648;2023-03-14T08:11:14;15.80;55.50
71994;DHT22;59861;50.268;8.648;2023-03-14T08:13:41;15.80;55.60
71994;DHT22;59861;50.268;8.648;2023-03-14T08:16:08;15.80;55.50
71994;DHT22;59861;50.268;8.648;2023-03-14T08:18:35;15.80;55.50
71994;DHT22;59861;50.268;8.648;2023-03-14T08:21:01;15.80;55.50
71994;DHT22;59861;50.268;8.648;2023-03-14T08:23:28;15.80;55.60
71994;DHT22;59861;50.268;8.648;2023-03-14T08:25:55;15.90;55.60
71994;DHT22;59861;50.268;8.648;2023-03-14T08:28:22;15.80;55.50
71994;DHT22;59861;50.268;8.648;2023-03-14T08:30:49;15.90;55.50
71994;DHT22;59861;50.268;8.648;2023-03-14T08:33:15;15.80;55.40
71994;DHT22;59861;50.268;8.648;2023-03-14T08:35:42;15.80;55.50
71994;DHT22;59861;50.268;8.648;2023-03-14T08:38:09;15.80;55.50
71994;DHT22;59861;50.268;8.648;2023-03-14T08:40:36;15.90;55.40
71994;DHT22;59861;50.268;8.648;2023-03-14T08:43:03;15.80;55.40
71994;DHT22;59861;50.268;8.648;2023-03-14T08:45:29;15.80;55.50
71994;DHT22;59861;50.268;8.648;2023-03-14T08:47:57;15.80;55.60
71994;DHT22;59861;50.268;8.648;2023-03-14T08:50:24;15.80;55.50
71994;DHT22;59861;50.268;8.648;2023-03-14T08:52:51;15.80;55.50
71994;DHT22;59861;50.268;8.648;2023-03-14T08:55:18;15.80;55.50
71994;DHT22;59861;50.268;8.648;2023-03-14T08:57:45;15.80;55.50
71994;DHT22;59861;50.268;8.648;2023-03-14T09:00:12;15.80;55.50
71994;DHT22;59861;50.268;8.648;2023-03-14T09:02:40;15.80;55.60
71994;DHT22;59861;50.268;8.648;2023-03-14T09:05:08;15.80;55.60
71994;DHT22;59861;50.268;8.648;2023-03-14T09:07:36;15.80;55.60
71994;DHT22;59861;50.268;8.648;2023-03-14T09:10:03;15.80;55.60
71994;DHT22;59861;50.268;8.648;2023-03-14T09:12:30;15.80;55.40
71994;DHT22;59861;50.268;8.648;2023-03-14T09:14:56;15.80;55.40
71994;DHT22;59861;50.268;8.648;2023-03-14T09:17:23;15.80;55.50
71994;DHT22;59861;50.268;8.648;2023-03-14T09:19:50;15.80;55.50
71994;DHT22;59861;50.268;8.648;2023-03-14T09:22:17;15.80;55.50
71994;DHT22;59861;50.268;8.648;2023-03-14T09:24:44;15.80;55.50
71994;DHT22;59861;50.268;8.648;2023-03-14T09:27:10;15.80;55.50
71994;DHT22;59861;50.268;8.648;2023-03-14T09:29:37;15.80;55.50
71994;DHT22;59861;50.268;8.648;2023-03-14T09:32:04;15.80;55.50
71994;DHT22;59861;50.268;8.648;2023-03-14T09:34:31;15.80;55.50
71994;DHT22;59861;50.268;8.648;2023-03-14T09:36:58;15.80;55.50
71994;DHT22;59861;50.268;8.648;2023-03-14T09:39:24;15.80;55.50
71994;DHT22;59861;50.268;8.648;2023-03-14T09:41:52;15.80;55.50
71994;DHT22;59861;50.268;8.648;2023-03-14T09:45:06;15.80;55.50
71994;DHT22;59861;50.268;8.648;2023-03-14T09:46:50;15.80;55.50
71994;DHT22;59861;50.268;8.648;2023-03-14T09:49:36;15.80;55.50
71994;DHT22;59861;50.268;8.648;2023-03-14T09:52:11;15.80;55.60
71994;DHT22;59861;50.268;8.648;2023-03-14T09:54:35;15.80;55.50
71994;DHT22;59861;50.268;8.648;2023-03-14T09:57:03;15.80;55.50
71994;DHT22;59861;50.268;8.648;2023-03-14T09:59:30;15.80;55.60
71994;DHT22;59861;50.268;8.648;2023-03-14T10:02:00;15.70;55.50
71994;DHT22;59861;50.268;8.648;2023-03-14T10:04:26;15.80;55.50
71994;DHT22;59861;50.268;8.648;2023-03-14T10:06:55;15.80;55.70
71994;DHT22;59861;50.268;8.648;2023-03-14T10:09:23;15.70;55.60
71994;DHT22;59861;50.268;8.648;2023-03-14T10:11:56;15.80;55.60
71994;DHT22;59861;50.268;8.648;2023-03-14T10:14:34;15.70;55.60
71994;DHT22;59861;50.268;8.648;2023-03-14T10:16:59;15.80;55.70
71994;DHT22;59861;50.268;8.648;2023-03-14T10:19:25;15.70;55.60
71994;DHT22;59861;50.268;8.648;2023-03-14T10:21:53;15.70;55.60
71994;DHT22;59861;50.268;8.648;2023-03-14T10:24:27;15.70;55.60
71994;DHT22;59861;50.268;8.648;2023-03-14T10:26:54;15.70;55.60
71994;DHT22;59861;50.268;8.648;2023-03-14T10:29:21;15.70;55.60
71994;DHT22;59861;50.268;8.648;2023-03-14T10:31:57;15.70;55.60
71994;DHT22;59861;50.268;8.648;2023-03-14T10:34:28;15.70;55.60
71994;DHT22;59861;50.268;8.648;2023-03-14T10:37:07;15.70;55.60
71994;DHT22;59861;50.268;8.648;2023-03-14T10:39:36;15.70;55.70
71994;DHT22;59861;50.268;8.648;2023-03-14T10:42:06;15.70;55.60
71994;DHT22;59861;50.268;8.648;2023-03-14T10:44:33;15.70;55.60
71994;DHT22;59861;50.268;8.648;2023-03-14T10:47:06;15.70;55.80
71994;DHT22;59861;50.268;8.648;2023-03-14T10:49:36;15.70;55.80
71994;DHT22;59861;50.268;8.648;2023-03-14T10:52:14;15.70;55.70
71994;DHT22;59861;50.268;8.648;2023-03-14T10:54:40;15.70;55.60
71994;DHT22;59861;50.268;8.648;2023-03-14T10:57:10;15.70;55.60
71994;DHT22;59861;50.268;8.648;2023-03-14T10:59:39;15.70;55.60
71994;DHT22;59861;50.268;8.648;2023-03-14T11:02:26;15.70;55.60
71994;DHT22;59861;50.268;8.648;2023-03-14T11:07:24;15.70;55.60
71994;DHT22;59861;50.268;8.648;2023-03-14T11:15:15;15.70;55.60
71994;DHT22;59861;50.268;8.648;2023-03-14T11:17:49;15.70;55.60
71994;DHT22;59861;50.268;8.648;2023-03-14T11:20:17;15.70;55.60
71994;DHT22;59861;50.268;8.648;2023-03-14T11:25:34;15.70;55.60
71994;DHT22;59861;50.268;8.648;2023-03-14T11:30:49;15.70;55.70
71994;DHT22;59861;50.268;8.648;2023-03-14T11:33:14;15.70;55.60
71994;DHT22;59861;50.268;8.648;2023-03-14T11:38:14;15.70;55.80
71994;DHT22;59861;50.268;8.648;2023-03-14T11:40:41;15.70;55.70
71994;DHT22;59861;50.268;8.648;2023-03-14T11:45:36;15.70;55.80
71994;DHT22;59861;50.268;8.648;2023-03-14T11:50:51;15.70;56.00
71994;DHT22;59861;50.268;8.648;2023-03-14T11:55:59;15.70;56.20
71994;DHT22;59861;50.268;8.648;2023-03-14T11:58:27;15.70;56.50
71994;DHT22;59861;50.268;8.648;2023-03-14T12:00:55;15.80;56.70
71994;DHT22;59861;50.268;8.648;2023-03-14T12:03:43;15.80;56.70
71994;DHT22;59861;50.268;8.648;2023-03-14T12:06:13;15.80;56.70
71994;DHT22;59861;50.268;8.648;2023-03-14T12:08:38;15.80;56.70
71994;DHT22;59861;50.268;8.648;2023-03-14T12:11:14;15.80;56.80
71994;DHT22;59861;50.268;8.648;2023-03-14T12:13:37;15.80;56.80
71994;DHT22;59861;50.268;8.648;2023-03-14T12:16:05;15.80;56.80
71994;DHT22;59861;50.268;8.648;2023-03-14T12:18:34;15.80;56.80
71994;DHT22;59861;50.268;8.648;2023-03-14T12:21:07;15.80;56.80
71994;DHT22;59861;50.268;8.648;2023-03-14T12:23:43;15.80;56.70
71994;DHT22;59861;50.268;8.648;2023-03-14T12:28:42;15.80;56.80
71994;DHT22;59861;50.268;8.648;2023-03-14T12:34:03;15.80;56.80
71994;DHT22;59861;50.268;8.648;2023-03-14T12:36:31;15.80;56.70
71994;DHT22;59861;50.268;8.648;2023-03-14T12:38:52;15.80;56.60
71994;DHT22;59861;50.268;8.648;2023-03-14T12:41:20;15.80;56.60
71994;DHT22;59861;50.268;8.648;2023-03-14T12:43:46;15.80;56.60
71994;DHT22;59861;50.268;8.648;2023-03-14T12:46:23;15.90;56.60
71994;DHT22;59861;50.268;8.648;2023-03-14T12:48:53;15.80;56.50
71994;DHT22;59861;50.268;8.648;2023-03-14T12:51:19;15.90;56.50
71994;DHT22;59861;50.268;8.648;2023-03-14T12:53:55;15.90;56.50
71994;DHT22;59861;50.268;8.648;2023-03-14T12:56:22;15.90;56.50
71994;DHT22;59861;50.268;8.648;2023-03-14T13:01:34;15.80;56.40
71994;DHT22;59861;50.268;8.648;2023-03-14T13:04:09;15.90;56.40
71994;DHT22;59861;50.268;8.648;2023-03-14T13:06:55;15.90;56.40
71994;DHT22;59861;50.268;8.648;2023-03-14T13:12:13;15.90;56.40
71994;DHT22;59861;50.268;8.648;2023-03-14T13:14:35;15.90;56.40
71994;DHT22;59861;50.268;8.648;2023-03-14T13:17:03;15.90;56.50
71994;DHT22;59861;50.268;8.648;2023-03-14T13:19:30;15.90;56.70
71994;DHT22;59861;50.268;8.648;2023-03-14T13:22:05;15.90;56.70
71994;DHT22;59861;50.268;8.648;2023-03-14T13:24:33;15.80;56.80
71994;DHT22;59861;50.268;8.648;2023-03-14T13:27:00;15.90;56.80
71994;DHT22;59861;50.268;8.648;2023-03-14T13:29:28;15.90;56.90
71994;DHT22;59861;50.268;8.648;2023-03-14T13:31:58;15.90;56.80
71994;DHT22;59861;50.268;8.648;2023-03-14T13:34:26;15.90;56.80
71994;DHT22;59861;50.268;8.648;2023-03-14T13:36:53;15.90;56.80
71994;DHT22;59861;50.268;8.648;2023-03-14T13:39:21;15.90;56.90
71994;DHT22;59861;50.268;8.648;2023-03-14T13:41:51;15.90;56.90
71994;DHT22;59861;50.268;8.648;2023-03-14T13:44:25;15.90;56.80
71994;DHT22;59861;50.268;8.648;2023-03-14T13:46:56;15.90;56.80
71994;DHT22;59861;50.268;8.648;2023-03-14T13:49:24;15.90;56.80
71994;DHT22;59861;50.268;8.648;2023-03-14T13:51:52;15.90;56.90
71994;DHT22;59861;50.268;8.648;2023-03-14T13:54:19;16.00;56.90
71994;DHT22;59861;50.268;8.648;2023-03-14T13:56:46;15.90;56.90
71994;DHT22;59861;50.268;8.648;2023-03-14T13:59:33;16.00;57.00
71994;DHT22;59861;50.268;8.648;2023-03-14T14:02:04;16.00;57.80
71994;DHT22;59861;50.268;8.648;2023-03-14T14:04:28;16.00;57.10
71994;DHT22;59861;50.268;8.648;2023-03-14T14:06:56;15.90;57.10
71994;DHT22;59861;50.268;8.648;2023-03-14T14:09:24;15.90;57.00
71994;DHT22;59861;50.268;8.648;2023-03-14T14:11:55;15.90;57.20
71994;DHT22;59861;50.268;8.648;2023-03-14T14:14:30;16.00;57.10
71994;DHT22;59861;50.268;8.648;2023-03-14T14:16:57;16.00;57.20
71994;DHT22;59861;50.268;8.648;2023-03-14T14:19:26;16.00;57.30
71994;DHT22;59861;50.268;8.648;2023-03-14T14:21:53;16.00;57.50
71994;DHT22;59861;50.268;8.648;2023-03-14T14:24:21;16.00;57.50
71994;DHT22;59861;50.268;8.648;2023-03-14T14:26:58;16.00;57.90
71994;DHT22;59861;50.268;8.648;2023-03-14T14:29:23;16.00;57.50
71994;DHT22;59861;50.268;8.648;2023-03-14T14:31:48;16.00;57.40
71994;DHT22;59861;50.268;8.648;2023-03-14T14:34:18;16.00;57.40
71994;DHT22;59861;50.268;8.648;2023-03-14T14:36:45;16.00;57.30
71994;DHT22;59861;50.268;8.648;2023-03-14T14:41:50;16.10;57.20
71994;DHT22;59861;50.268;8.648;2023-03-14T14:44:18;16.00;57.20
71994;DHT22;59861;50.268;8.648;2023-03-14T14:46:45;16.00;57.30
71994;DHT22;59861;50.268;8.648;2023-03-14T14:49:13;16.00;57.30
71994;DHT22;59861;50.268;8.648;2023-03-14T14:51:47;16.00;57.30
71994;DHT22;59861;50.268;8.648;2023-03-14T14:54:12;16.00;57.30
71994;DHT22;59861;50.268;8.648;2023-03-14T14:56:39;16.00;57.30
71994;DHT22;59861;50.268;8.648;2023-03-14T14:59:17;16.00;57.40
71994;DHT22;59861;50.268;8.648;2023-03-14T15:01:38;16.00;57.50
71994;DHT22;59861;50.268;8.648;2023-03-14T15:04:12;16.10;57.50
71994;DHT22;59861;50.268;8.648;2023-03-14T15:06:44;16.10;57.50
71994;DHT22;59861;50.268;8.648;2023-03-14T15:09:11;16.00;57.50
71994;DHT22;59861;50.268;8.648;2023-03-14T15:11:38;16.00;57.50
71994;DHT22;59861;50.268;8.648;2023-03-14T15:14:05;16.00;57.80
71994;DHT22;59861;50.268;8.648;2023-03-14T15:16:32;16.10;57.50
71994;DHT22;59861;50.268;8.648;2023-03-14T15:19:03;16.10;57.40
71994;DHT22;59861;50.268;8.648;2023-03-14T15:21:31;16.10;57.40
71994;DHT22;59861;50.268;8.648;2023-03-14T15:23:59;16.10;57.30
71994;DHT22;59861;50.268;8.648;2023-03-14T15:26:26;16.10;57.40
71994;DHT22;59861;50.268;8.648;2023-03-14T15:28:53;16.10;57.40
71994;DHT22;59861;50.268;8.648;2023-03-14T15:31:20;16.10;57.40
71994;DHT22;59861;50.268;8.648;2023-03-14T15:33:49;16.00;57.50
71994;DHT22;59861;50.268;8.648;2023-03-14T15:36:23;16.00;57.50
71994;DHT22;59861;50.268;8.648;2023-03-14T15:38:51;16.00;57.80
71994;DHT22;59861;50.268;8.648;2023-03-14T15:41:18;15.90;57.90
71994;DHT22;59861;50.268;8.648;2023-03-14T15:43:45;16.00;58.00
71994;DHT22;59861;50.268;8.648;2023-03-14T15:46:11;16.00;58.10
71994;DHT22;59861;50.268;8.648;2023-03-14T15:48:40;16.00;58.10
71994;DHT22;59861;50.268;8.648;2023-03-14T15:51:07;15.90;58.20
71994;DHT22;59861;50.268;8.648;2023-03-14T15:53:34;16.00;58.20
71994;DHT22;59861;50.268;8.648;2023-03-14T15:56:04;16.00;58.10
71994;DHT22;59861;50.268;8.648;2023-03-14T15:58:31;16.00;58.20
71994;DHT22;59861;50.268;8.648;2023-03-14T16:01:01;16.10;58.00
71994;DHT22;59861;50.268;8.648;2023-03-14T16:03:28;16.10;58.00
71994;DHT22;59861;50.268;8.648;2023-03-14T16:05:55;16.10;58.00
71994;DHT22;59861;50.268;8.648;2023-03-14T16:08:25;16.10;58.00
71994;DHT22;59861;50.268;8.648;2023-03-14T16:10:54;16.30;58.00
71994;DHT22;59861;50.268;8.648;2023-03-14T16:13:22;16.20;58.10
71994;DHT22;59861;50.268;8.648;2023-03-14T16:15:53;16.30;58.20
71994;DHT22;59861;50.268;8.648;2023-03-14T16:18:20;16.20;58.40
71994;DHT22;59861;50.268;8.648;2023-03-14T16:21:03;16.20;58.50
71994;DHT22;59861;50.268;8.648;2023-03-14T16:23:33;16.20;58.60